createdAt,value
2018-01-08T00:03:30.745Z,102688.06
2018-01-08T00:08:32.059Z,102679.09
2018-01-08T00:13:33.395Z,102685.64
2018-01-08T00:18:34.743Z,102679.80
2018-01-08T00:23:36.073Z,102665.41
2018-01-08T00:28:38.113Z,102678.17
2018-01-08T00:33:39.552Z,102647.84
2018-01-08T00:38:40.865Z,102667.86
2018-01-08T00:43:42.172Z,102675.39
2018-01-08T00:48:43.497Z,102659.16
2018-01-08T00:53:44.809Z,102657.14
2018-01-08T00:58:46.219Z,102655.03
2018-01-08T01:03:48.304Z,102663.52
2018-01-08T01:08:49.634Z,102663.87
2018-01-08T01:13:51.044Z,102652.23
2018-01-08T01:18:52.711Z,102657.13
2018-01-08T01:23:54.842Z,102644.55
2018-01-08T01:28:56.169Z,102644.80
2018-01-08T01:33:57.551Z,102644.30
2018-01-08T01:38:58.871Z,102644.50
2018-01-08T01:44:00.968Z,102655.02
2018-01-08T01:49:20.606Z,102646.05
2018-01-08T01:54:22.695Z,102653.91
2018-01-08T01:59:24.060Z,102656.44
2018-01-08T02:04:25.386Z,102654.02
2018-01-08T02:09:26.917Z,102648.57
2018-01-08T02:14:29.058Z,102649.05
2018-01-08T02:19:30.423Z,102645.55
2018-01-08T02:24:31.763Z,102631.31
2018-01-08T02:29:33.151Z,102643.45
2018-01-08T02:34:34.451Z,102640.14
2018-01-08T02:39:36.579Z,102632.41
2018-01-08T02:44:38.066Z,102641.77
2018-01-08T02:49:40.102Z,102626.80
2018-01-08T02:54:41.503Z,102635.88
2018-01-08T02:59:42.858Z,102633.28
2018-01-08T03:04:44.163Z,102630.52
2018-01-08T03:09:45.505Z,102641.57
2018-01-08T03:14:46.903Z,102643.12
2018-01-08T03:19:48.960Z,102655.70
2018-01-08T03:24:50.314Z,102648.56
2018-01-08T03:29:52.431Z,102657.04
2018-01-08T03:34:53.800Z,102655.59
2018-01-08T03:39:55.855Z,102656.89
2018-01-08T03:44:57.208Z,102649.25
2018-01-08T03:49:59.290Z,102650.55
2018-01-08T03:55:00.628Z,102654.41
2018-01-08T04:00:01.972Z,102649.16
2018-01-08T04:05:03.327Z,102656.73
2018-01-08T04:10:04.663Z,102664.77
2018-01-08T04:15:06.835Z,102659.56
2018-01-08T04:20:08.172Z,102651.83
2018-01-08T04:25:10.237Z,102637.47
2018-01-08T04:30:11.707Z,102633.84
2018-01-08T04:35:13.430Z,102629.89
2018-01-08T04:40:14.780Z,102637.70
2018-01-08T04:45:16.094Z,102637.20
2018-01-08T04:50:17.407Z,102639.30
2018-01-08T04:55:18.780Z,102638.40
2018-01-08T05:00:20.082Z,102648.92
2018-01-08T05:05:21.413Z,102644.59
2018-01-08T05:10:23.080Z,102648.86
2018-01-08T05:15:25.248Z,102646.58
2018-01-08T05:20:26.626Z,102655.33
2018-01-08T05:25:27.949Z,102646.71
2018-01-08T05:30:29.242Z,102655.09
2018-01-08T05:35:30.552Z,102648.23
2018-01-08T05:40:31.863Z,102652.50
2018-01-08T05:45:33.902Z,102646.45
2018-01-08T05:50:35.268Z,102647.03
2018-01-08T05:55:36.580Z,102638.95
2018-01-08T06:00:37.974Z,102641.08
2018-01-08T06:05:39.275Z,102646.58
2018-01-08T06:10:40.608Z,102646.58
2018-01-08T06:15:42.700Z,102657.30
2018-01-08T06:20:44.024Z,102642.06
2018-01-08T06:25:45.359Z,102637.27
2018-01-08T06:30:46.794Z,102645.03
2018-01-08T06:35:48.121Z,102641.07
2018-01-08T06:40:49.448Z,102664.41
2018-01-08T06:45:50.747Z,102645.88
2018-01-08T06:50:52.804Z,102646.63
2018-01-08T06:55:54.123Z,102634.21
2018-01-08T07:00:55.451Z,102620.94
2018-01-08T07:05:56.758Z,102632.75
2018-01-08T07:10:58.097Z,102638.18
2018-01-08T07:15:59.418Z,102631.05
2018-01-08T07:21:00.744Z,102631.65
2018-01-08T07:26:02.061Z,102640.16
2018-01-08T07:31:03.376Z,102637.27
2018-01-08T07:36:04.723Z,102641.40
2018-01-08T07:41:06.051Z,102634.83
2018-01-08T07:46:07.356Z,102633.12
2018-01-08T07:51:08.680Z,102632.38
2018-01-08T07:56:10.017Z,102635.09
2018-01-08T08:01:12.109Z,102636.48
2018-01-08T08:06:13.569Z,102645.62
2018-01-08T08:11:14.878Z,102642.95
2018-01-08T08:16:16.225Z,102640.13
2018-01-08T08:21:17.596Z,102646.66
2018-01-08T08:26:18.920Z,102632.34
2018-01-08T08:31:20.244Z,102621.55
2018-01-08T08:36:21.570Z,102622.92
2018-01-08T08:41:22.887Z,102616.75
2018-01-08T08:46:24.214Z,102608.08
2018-01-08T08:51:26.266Z,102593.25
2018-01-08T08:56:27.574Z,102598.95
2018-01-08T09:01:28.919Z,102606.83
2018-01-08T09:06:30.215Z,102604.39
2018-01-08T09:11:31.561Z,102591.25
2018-01-08T09:16:32.966Z,102588.44
2018-01-08T09:21:34.294Z,102582.64
2018-01-08T09:26:35.823Z,102567.55
2018-01-08T09:31:37.152Z,102594.59
2018-01-08T09:36:39.256Z,102591.72
2018-01-08T09:41:41.310Z,102575.91
2018-01-08T09:46:43.108Z,102585.81
2018-01-08T09:51:44.674Z,102576.39
2018-01-08T09:56:46.129Z,102590.39
2018-01-08T10:01:47.660Z,102575.77
2018-01-08T10:07:07.373Z,102572.97
2018-01-08T10:12:27.777Z,102565.27
2018-01-08T10:17:47.551Z,102571.38
2018-01-08T10:22:48.880Z,102552.59
2018-01-08T10:27:50.213Z,102560.63
2018-01-08T10:32:51.598Z,102561.37
2018-01-08T10:37:53.666Z,102556.73
2018-01-08T10:43:01.023Z,102550.46
2018-01-08T10:48:09.277Z,102539.28
2018-01-08T10:58:55.437Z,102532.50
2018-01-08T11:03:59.435Z,102525.77
2018-01-08T11:09:01.524Z,102524.74
2018-01-08T11:14:02.880Z,102517.20
2018-01-08T11:19:04.286Z,102508.92
2018-01-08T11:24:05.622Z,102498.59
2018-01-08T11:29:07.004Z,102480.73
2018-01-08T11:34:08.500Z,102465.24
2018-01-08T11:39:10.610Z,102470.14
2018-01-08T11:44:12.688Z,102436.65
2018-01-08T11:49:14.087Z,102433.09
2018-01-08T11:54:15.408Z,102435.12
2018-01-08T11:59:16.757Z,102438.23
2018-01-08T12:04:18.183Z,102424.98
2018-01-08T12:09:19.504Z,102435.36
2018-01-08T12:14:20.882Z,102419.95
2018-01-08T12:19:22.311Z,102426.22
2018-01-08T12:24:24.475Z,102406.86
2018-01-08T12:29:26.338Z,102407.55
2018-01-08T12:34:27.799Z,102396.00
2018-01-08T12:39:29.168Z,102413.09
2018-01-08T12:44:30.536Z,102415.56
2018-01-08T12:49:32.662Z,102403.19
2018-01-08T12:54:34.008Z,102403.85
2018-01-08T12:59:35.376Z,102394.01
2018-01-08T13:04:36.721Z,102383.67
2018-01-08T13:09:38.068Z,102383.83
2018-01-08T13:14:39.439Z,102368.99
2018-01-08T13:19:40.806Z,102361.09
2018-01-08T13:24:42.141Z,102364.70
2018-01-08T13:29:43.599Z,102347.95
2018-01-08T13:34:44.943Z,102342.38
2018-01-08T13:39:47.024Z,102342.63
2018-01-08T13:44:48.432Z,102331.22
2018-01-08T13:49:49.802Z,102345.44
2018-01-08T13:54:51.155Z,102345.23
2018-01-08T13:59:52.493Z,102340.73
2018-01-08T14:04:53.846Z,102319.44
2018-01-08T14:09:55.199Z,102318.95
2018-01-08T14:14:57.302Z,102323.88
2018-01-08T14:19:59.392Z,102325.03
2018-01-08T14:25:00.771Z,102305.84
2018-01-08T14:30:02.208Z,102295.59
2018-01-08T14:35:03.556Z,102317.19
2018-01-08T14:40:05.068Z,102313.16
2018-01-08T14:45:07.208Z,102297.83
2018-01-08T14:50:08.555Z,102301.88
2018-01-08T14:55:11.680Z,102315.77
2018-01-08T15:00:13.048Z,102306.69
2018-01-08T15:05:14.501Z,102308.80
2018-01-08T15:10:15.949Z,102300.98
2018-01-08T15:15:17.319Z,102294.70
2018-01-08T15:20:20.610Z,102294.60
2018-01-08T15:25:23.043Z,102297.14
2018-01-08T15:30:24.389Z,102286.64
2018-01-08T15:35:25.707Z,102288.55
2018-01-08T15:40:27.032Z,102285.09
2018-01-08T15:45:28.380Z,102277.02
2018-01-08T15:50:30.489Z,102266.20
2018-01-08T15:55:32.706Z,102273.61
2018-01-08T16:00:34.079Z,102270.16
2018-01-08T16:05:36.210Z,102275.14
2018-01-08T16:10:37.589Z,102272.94
2018-01-08T16:15:39.658Z,102271.31
2018-01-08T16:20:40.987Z,102292.50
2018-01-08T16:25:43.043Z,102284.81
2018-01-08T16:30:44.374Z,102278.94
2018-01-08T16:35:46.434Z,102273.11
2018-01-08T16:40:47.776Z,102269.42
2018-01-08T16:45:49.094Z,102252.11
2018-01-08T16:50:50.410Z,102249.59
2018-01-08T16:55:51.745Z,102260.79
2018-01-08T17:00:53.095Z,102239.05
2018-01-08T17:05:54.410Z,102224.21
2018-01-08T17:10:56.476Z,102218.36
2018-01-08T17:15:58.159Z,102217.92
2018-01-08T17:20:59.521Z,102228.25
2018-01-08T17:26:01.633Z,102229.33
2018-01-08T17:31:03.211Z,102230.59
2018-01-08T17:36:04.573Z,102224.82
2018-01-08T17:41:05.931Z,102212.72
2018-01-08T17:46:07.290Z,102226.18
2018-01-08T17:51:08.627Z,102224.19
2018-01-08T17:56:09.946Z,102221.61
2018-01-08T18:01:11.352Z,102224.84
2018-01-08T18:06:13.466Z,102199.20
2018-01-08T18:11:15.290Z,102202.95
2018-01-08T18:16:16.616Z,102214.70
2018-01-08T18:21:17.966Z,102218.92
2018-01-08T18:26:19.661Z,102219.87
2018-01-08T18:31:21.840Z,102205.88
2018-01-08T18:36:23.241Z,102202.36
2018-01-08T18:41:24.974Z,102181.69
2018-01-08T18:46:27.056Z,102169.94
2018-01-08T18:51:28.443Z,102163.38
2018-01-08T18:56:30.143Z,102172.55
2018-01-08T19:01:32.589Z,102157.11
2018-01-08T19:06:34.084Z,102165.40
2018-01-08T19:11:37.217Z,102161.17
2018-01-08T19:16:40.271Z,102164.14
2018-01-08T19:21:41.656Z,102158.56
2018-01-08T19:26:43.491Z,102158.03
2018-01-08T19:31:46.306Z,102160.23
2018-01-08T19:36:47.899Z,102145.70
2018-01-08T19:41:50.120Z,102149.55
2018-01-08T19:46:51.493Z,102148.52
2018-01-08T19:51:53.420Z,102133.05
2018-01-08T19:56:55.257Z,102130.78
2018-01-08T20:01:56.596Z,102111.09
2018-01-08T20:06:57.992Z,102109.89
2018-01-08T20:12:00.132Z,102099.67
2018-01-08T20:17:01.468Z,102114.84
2018-01-08T20:22:02.823Z,102102.09
2018-01-08T20:27:04.208Z,102102.16
2018-01-08T20:32:05.557Z,102106.53
2018-01-08T20:37:06.925Z,102093.20
2018-01-08T20:42:08.304Z,102106.72
2018-01-08T20:47:10.557Z,102103.28
2018-01-08T20:52:12.634Z,102090.52
2018-01-08T20:57:13.982Z,102089.02
2018-01-08T21:02:15.349Z,102088.20
2018-01-08T21:07:17.430Z,102094.84
2018-01-08T21:12:18.762Z,102094.59
2018-01-08T21:17:20.084Z,102096.48
2018-01-08T21:22:21.427Z,102095.73
2018-01-08T21:27:23.496Z,102080.20
2018-01-08T21:32:24.847Z,102070.95
2018-01-08T21:37:26.174Z,102070.53
2018-01-08T21:42:27.512Z,102055.62
2018-01-08T21:47:28.840Z,102046.84
2018-01-08T21:52:30.192Z,102031.49
2018-01-08T21:57:31.522Z,102003.77
2018-01-08T22:02:32.952Z,101991.20
2018-01-08T22:07:34.359Z,101993.45
2018-01-08T22:12:35.757Z,102003.47
2018-01-08T22:17:37.103Z,101991.00
2018-01-08T22:22:38.448Z,101967.55
2018-01-08T22:27:39.867Z,101981.83
2018-01-08T22:32:41.219Z,101982.52
2018-01-08T22:37:42.534Z,101974.99
2018-01-08T22:42:43.939Z,101965.76
2018-01-08T22:47:45.286Z,101970.13
2018-01-08T22:52:46.662Z,101960.98
2018-01-08T22:57:48.704Z,101947.77
2018-01-08T23:02:50.064Z,101932.48
2018-01-08T23:07:51.359Z,101926.25
2018-01-08T23:12:52.735Z,101918.45
2018-01-08T23:17:54.804Z,101893.27
2018-01-08T23:22:56.160Z,101887.23
2018-01-08T23:27:57.510Z,101878.27
2018-01-08T23:32:58.896Z,101861.66
2018-01-08T23:38:00.220Z,101860.75
2018-01-08T23:43:01.615Z,101853.38
2018-01-08T23:48:02.920Z,101853.11
2018-01-08T23:53:04.253Z,101824.20
2018-01-08T23:58:05.662Z,101826.73
